Hamble, United Kingdom
Current Conditions -  °F | °C
As of 6:50 AM on Friday 31 Oct 2014 (Local Time) from EGHI Reporting Station
Light Fog Light Fog  
Wind Chill: 54°   Ceiling: Unl
Heat Index: 54°   Visibility: 1.8mi
Dew Point: 54°   Wind: 3mph
Humidity: 100%   Direction: 140°SE
Pressure: 30.03"   Gusts: NA
Location:  50.86°N, 1.32°W
Report Text: EGHI 310650Z 14003KT 3000 BR MIFG NSC 12/12 Q1017
Loading
Personal Weather Stations






























Interactive Weather Map
Tropical Storm Tracking
New forecast layout! Learn more

10-Day Weather Forecast

Advertisements
Track Severe Weather on mobile